Time;durP1;ratioP1;P1;durP2;ratioP2;P2;SDS_P1;SDS_P2;PMS_P1;PMS_P2;Temp;Humidity;BMP_temperature;BMP_pressure;BME280_temperature;BME280_humidity;BME280_pressure;Samples;Min_cycle;Max_cycle;Signal;HPM_P1;HPM_P2
2022/03/31 00:00:14;;;;;;;1.20;0.70;;;4.40;99.90;;;;;;5074119;28;20048;-79
2022/03/31 00:02:40;;;;;;;2.15;0.95;;;4.30;99.90;;;;;;5091892;28;20093;-80
2022/03/31 00:05:06;;;;;;;2.63;0.70;;;4.40;99.90;;;;;;5073646;28;20827;-79
2022/03/31 00:07:32;;;;;;;3.75;0.60;;;4.40;99.90;;;;;;5091995;28;20043;-79
2022/03/31 00:09:57;;;;;;;1.95;0.40;;;4.40;99.90;;;;;;5091994;28;20098;-79
2022/03/31 00:12:23;;;;;;;1.67;0.93;;;4.40;99.90;;;;;;5074102;28;20040;-80
2022/03/31 00:14:48;;;;;;;4.22;0.60;;;4.40;99.90;;;;;;5091221;28;20144;-80
2022/03/31 00:17:14;;;;;;;2.92;0.50;;;4.40;99.90;;;;;;5074445;28;20052;-80
2022/03/31 00:19:40;;;;;;;1.17;0.57;;;4.40;99.90;;;;;;5092274;28;20051;-80
2022/03/31 00:22:28;;;;;;;4.57;1.13;;;4.40;99.90;;;;;;5091250;28;20040;-80
2022/03/31 00:24:53;;;;;;;4.13;0.98;;;4.30;99.90;;;;;;5091700;28;20465;-81
2022/03/31 00:27:19;;;;;;;2.30;1.48;;;4.20;99.90;;;;;;5073880;28;20079;-80
2022/03/31 00:29:44;;;;;;;1.50;0.60;;;4.20;99.90;;;;;;5091575;28;20093;-79
2022/03/31 00:32:10;;;;;;;3.45;0.57;;;4.20;99.90;;;;;;5091619;28;20052;-80
2022/03/31 00:34:36;;;;;;;12.45;0.82;;;4.80;99.90;;;;;;5074213;28;20040;-80
2022/03/31 00:37:02;;;;;;;2.72;1.10;;;4.00;99.90;;;;;;5090953;28;20051;-80
2022/03/31 00:39:34;;;;;;;3.55;0.80;;;4.00;99.90;;;;;;5091905;28;20089;-80
2022/03/31 00:42:03;;;;;;;5.28;0.75;;;3.90;99.90;;;;;;5091506;28;20448;-80
2022/03/31 00:44:30;;;;;;;2.75;0.80;;;3.90;99.90;;;;;;5072834;28;20059;-80
2022/03/31 00:46:56;;;;;;;4.75;0.80;;;3.90;99.90;;;;;;5091713;28;20054;-81
2022/03/31 00:49:24;;;;;;;4.30;0.75;;;3.80;99.90;;;;;;5091692;28;20067;-80
2022/03/31 00:51:52;;;;;;;5.28;1.42;;;3.80;99.90;;;;;;5072685;28;20100;-80
2022/03/31 00:54:20;;;;;;;6.30;1.17;;;3.80;99.90;;;;;;5073814;28;20428;-81
2022/03/31 00:56:49;;;;;;;2.45;0.82;;;3.80;99.90;;;;;;5073160;28;20054;-81
2022/03/31 00:59:15;;;;;;;5.68;0.90;;;3.80;99.90;;;;;;5091930;28;20052;-80
2022/03/31 01:01:43;;;;;;;2.03;0.70;;;3.80;99.90;;;;;;5091807;28;20040;-80
2022/03/31 01:04:09;;;;;;;1.48;0.77;;;3.80;99.90;;;;;;5072663;28;20123;-80
2022/03/31 01:06:35;;;;;;;1.13;0.40;;;3.90;99.90;;;;;;5093659;28;20047;-80
2022/03/31 01:09:03;;;;;;;1.83;0.68;;;3.70;99.90;;;;;;5077472;28;20056;-81
2022/03/31 01:11:29;;;;;;;1.33;0.68;;;3.70;99.90;;;;;;5076815;28;20429;-79
2022/03/31 01:13:58;;;;;;;3.65;1.08;;;3.70;99.90;;;;;;5095518;28;20040;-79
2022/03/31 01:16:25;;;;;;;3.22;1.40;;;4.20;99.90;;;;;;5095800;28;20410;-80
2022/03/31 01:18:51;;;;;;;2.15;1.23;;;3.70;99.90;;;;;;5094559;28;20474;-79
2022/03/31 01:21:17;;;;;;;3.83;0.80;;;3.70;99.90;;;;;;5095415;28;20093;-79
2022/03/31 01:23:44;;;;;;;6.82;1.00;;;3.60;99.90;;;;;;5095415;28;20040;-80
2022/03/31 01:26:10;;;;;;;1.92;0.70;;;3.60;99.90;;;;;;5094633;28;20040;-79
2022/03/31 01:28:41;;;;;;;2.45;0.90;;;3.60;99.90;;;;;;5101397;28;20040;-79
2022/03/31 01:31:08;;;;;;;3.45;1.25;;;3.60;99.90;;;;;;5098444;28;20127;-79
2022/03/31 01:33:34;;;;;;;2.90;0.80;;;3.60;99.90;;;;;;5076570;28;20036;-80
2022/03/31 01:36:02;;;;;;;4.05;1.10;;;3.60;99.90;;;;;;5076829;28;20048;-79
2022/03/31 01:38:28;;;;;;;4.32;0.70;;;3.60;99.90;;;;;;5095403;28;20093;-79
2022/03/31 01:40:54;;;;;;;8.77;1.73;;;3.60;99.90;;;;;;5094398;28;20048;-79
2022/03/31 01:43:21;;;;;;;4.55;0.80;;;3.60;99.90;;;;;;5095223;28;20140;-79
2022/03/31 01:45:49;;;;;;;7.15;1.60;;;3.60;99.90;;;;;;5094988;28;20044;-80
2022/03/31 01:48:16;;;;;;;2.25;0.80;;;3.50;99.90;;;;;;5076191;28;20126;-79
2022/03/31 01:50:42;;;;;;;2.75;0.93;;;3.60;99.90;;;;;;5101760;28;20052;-80
2022/03/31 01:53:09;;;;;;;3.65;0.85;;;3.60;99.90;;;;;;5101903;28;20040;-80
2022/03/31 01:55:35;;;;;;;4.97;0.93;;;3.60;99.90;;;;;;5108437;28;20482;-80
2022/03/31 01:58:01;;;;;;;3.40;0.70;;;3.60;99.90;;;;;;5102058;28;20047;-79
2022/03/31 02:00:27;;;;;;;1.60;0.88;;;3.60;99.90;;;;;;5088526;28;20485;-79
2022/03/31 02:02:52;;;;;;;5.45;1.20;;;3.60;99.90;;;;;;5094869;28;20063;-79
2022/03/31 02:05:18;;;;;;;1.30;1.17;;;3.70;99.90;;;;;;5113141;28;20497;-80
2022/03/31 02:07:44;;;;;;;2.88;1.85;;;3.70;99.90;;;;;;5114533;28;20043;-80
2022/03/31 02:10:12;;;;;;;2.38;1.73;;;3.60;99.90;;;;;;5096453;28;20051;-80
2022/03/31 02:12:39;;;;;;;3.58;1.90;;;3.70;99.90;;;;;;5096466;28;20119;-80
2022/03/31 02:15:05;;;;;;;3.60;1.98;;;3.60;99.90;;;;;;5093517;28;20048;-80
2022/03/31 02:17:32;;;;;;;3.97;2.50;;;3.60;99.90;;;;;;5093917;28;20379;-80
2022/03/31 02:19:58;;;;;;;2.80;2.42;;;3.60;99.90;;;;;;5076871;28;20040;-79
2022/03/31 02:22:24;;;;;;;2.92;2.35;;;3.60;99.90;;;;;;5094717;28;20460;-79
2022/03/31 02:24:49;;;;;;;6.13;2.40;;;3.60;99.90;;;;;;5076111;28;20052;-79
2022/03/31 02:27:15;;;;;;;4.10;2.60;;;3.50;99.90;;;;;;5094331;28;20111;-79
2022/03/31 02:29:41;;;;;;;3.08;2.70;;;3.50;99.90;;;;;;5075208;28;20062;-79
2022/03/31 02:32:07;;;;;;;3.70;2.60;;;3.50;99.90;;;;;;5076010;28;20177;-79
2022/03/31 02:34:33;;;;;;;5.68;3.05;;;3.50;99.90;;;;;;5079982;28;20087;-78
2022/03/31 02:36:59;;;;;;;3.47;3.17;;;3.50;99.90;;;;;;5105521;28;20390;-79
2022/03/31 02:39:28;;;;;;;5.13;3.55;;;3.40;99.90;;;;;;5076293;28;20048;-80
2022/03/31 02:41:54;;;;;;;5.57;3.72;;;3.40;99.90;;;;;;5075524;28;20039;-79
2022/03/31 02:44:20;;;;;;;5.00;3.53;;;3.40;99.90;;;;;;5093276;28;20040;-80
2022/03/31 02:46:46;;;;;;;4.40;3.63;;;3.40;99.90;;;;;;5093934;28;20093;-80
2022/03/31 02:49:11;;;;;;;4.50;4.10;;;3.40;99.90;;;;;;5074809;28;20098;-79
2022/03/31 02:51:37;;;;;;;3.95;3.55;;;3.40;99.90;;;;;;5075728;28;20056;-79
2022/03/31 02:56:47;;;;;;;5.53;3.90;;;3.30;99.90;;;;;;5074707;28;20075;-79
2022/03/31 02:59:13;;;;;;;4.25;3.75;;;3.30;99.90;;;;;;5093825;28;20091;-79
2022/03/31 03:01:38;;;;;;;4.07;3.78;;;3.30;99.90;;;;;;5093542;28;20035;-79
2022/03/31 03:04:07;;;;;;;4.45;3.45;;;3.30;99.90;;;;;;5092779;28;20048;-80
2022/03/31 03:06:33;;;;;;;5.30;2.70;;;3.30;99.90;;;;;;5093813;28;20047;-79
2022/03/31 03:08:59;;;;;;;3.30;2.95;;;3.20;99.90;;;;;;5093486;28;20044;-79
2022/03/31 03:11:25;;;;;;;3.20;2.90;;;3.20;99.90;;;;;;5074837;28;20040;-80
2022/03/31 03:13:51;;;;;;;3.25;2.70;;;3.10;99.90;;;;;;5080496;28;20051;-79
2022/03/31 03:16:16;;;;;;;3.35;2.58;;;3.10;99.90;;;;;;5103574;28;20115;-80
2022/03/31 03:18:42;;;;;;;4.65;2.80;;;3.10;99.90;;;;;;5082307;28;20047;-80
2022/03/31 03:21:08;;;;;;;2.50;2.30;;;3.10;99.90;;;;;;5113364;28;20035;-79
2022/03/31 03:23:36;;;;;;;5.20;2.50;;;3.10;99.90;;;;;;5075379;28;20048;-79
2022/03/31 03:26:02;;;;;;;2.42;2.22;;;3.10;99.90;;;;;;5091941;28;20123;-79
2022/03/31 03:28:29;;;;;;;5.35;2.63;;;3.10;99.90;;;;;;5093017;28;20109;-79
2022/03/31 03:30:55;;;;;;;2.22;2.03;;;3.10;99.90;;;;;;5073848;28;20099;-80
2022/03/31 03:33:21;;;;;;;2.33;2.10;;;3.00;99.90;;;;;;5092326;28;20491;-79
2022/03/31 03:35:46;;;;;;;2.10;1.90;;;3.00;99.90;;;;;;5092925;28;20044;-79
2022/03/31 03:38:14;;;;;;;2.00;1.77;;;3.00;99.90;;;;;;5074809;28;20135;-79
2022/03/31 03:40:40;;;;;;;2.08;1.88;;;3.00;99.90;;;;;;5074036;28;20052;-79
2022/03/31 03:43:06;;;;;;;2.38;2.17;;;3.00;99.90;;;;;;5074563;28;20058;-78
2022/03/31 03:45:31;;;;;;;3.05;2.60;;;2.90;99.90;;;;;;5092218;28;20123;-79
2022/03/31 03:47:58;;;;;;;3.20;2.72;;;2.90;99.90;;;;;;5073867;28;20083;-79
2022/03/31 03:50:25;;;;;;;3.72;2.13;;;2.80;99.90;;;;;;5102394;28;20518;-79
2022/03/31 03:52:51;;;;;;;2.83;2.58;;;2.80;99.90;;;;;;5099908;28;20055;-79
2022/03/31 03:55:17;;;;;;;2.33;1.95;;;2.80;99.90;;;;;;5074440;28;20036;-79
2022/03/31 03:57:43;;;;;;;2.38;2.10;;;2.80;99.90;;;;;;5081049;28;20074;-80
2022/03/31 04:00:10;;;;;;;4.78;2.72;;;2.80;99.90;;;;;;5093460;28;20131;-79
2022/03/31 04:02:36;;;;;;;2.90;2.65;;;2.80;99.90;;;;;;5094626;28;20432;-79
2022/03/31 04:05:03;;;;;;;3.92;3.58;;;2.70;99.90;;;;;;5112528;28;20428;-81
2022/03/31 04:07:28;;;;;;;5.97;4.97;;;2.70;99.90;;;;;;5112386;28;20044;-80
2022/03/31 04:09:54;;;;;;;6.22;4.95;;;2.70;99.90;;;;;;5094313;28;20051;-80
2022/03/31 04:12:19;;;;;;;5.63;5.22;;;2.60;99.90;;;;;;5112460;28;20538;-80
2022/03/31 04:14:45;;;;;;;9.32;4.97;;;2.50;99.90;;;;;;5093972;28;20043;-80
2022/03/31 04:17:11;;;;;;;4.15;3.85;;;2.50;99.90;;;;;;5094257;28;20040;-80
2022/03/31 04:19:37;;;;;;;3.60;3.05;;;2.40;99.90;;;;;;5095969;28;20425;-81
2022/03/31 04:22:03;;;;;;;3.30;2.85;;;2.40;99.90;;;;;;5101499;28;20070;-79
2022/03/31 04:24:28;;;;;;;3.65;3.28;;;2.30;99.90;;;;;;5087252;28;20819;-79
2022/03/31 04:26:54;;;;;;;3.20;2.90;;;2.30;99.90;;;;;;5093660;28;20062;-79
2022/03/31 04:29:20;;;;;;;3.85;2.80;;;2.30;99.90;;;;;;5103750;28;20048;-79
2022/03/31 04:31:45;;;;;;;2.65;2.20;;;2.40;99.90;;;;;;5092145;28;20478;-80
2022/03/31 04:34:15;;;;;;;3.58;3.05;;;2.30;99.90;;;;;;5091925;28;20044;-80
2022/03/31 04:36:41;;;;;;;3.25;2.40;;;2.20;99.90;;;;;;5095687;28;20378;-79
2022/03/31 04:39:06;;;;;;;5.53;2.45;;;2.20;99.90;;;;;;5087832;28;20926;-80
2022/03/31 04:41:33;;;;;;;3.05;2.10;;;2.20;99.90;;;;;;5091548;28;20075;-80
2022/03/31 04:43:58;;;;;;;3.20;2.03;;;2.20;99.90;;;;;;5105653;28;20043;-79
2022/03/31 04:46:24;;;;;;;6.32;2.10;;;2.20;99.90;;;;;;5112454;28;20036;-79
2022/03/31 04:48:50;;;;;;;2.90;2.20;;;2.20;99.90;;;;;;5091114;28;20475;-80
2022/03/31 04:51:15;;;;;;;2.55;1.80;;;2.20;99.90;;;;;;5088618;28;20156;-79
2022/03/31 04:53:41;;;;;;;2.08;1.80;;;2.20;99.90;;;;;;5075638;28;20052;-80
2022/03/31 04:56:06;;;;;;;2.22;1.60;;;2.20;99.90;;;;;;5103486;28;20075;-79
2022/03/31 04:58:32;;;;;;;4.07;2.50;;;2.20;99.90;;;;;;5102667;28;20520;-79
2022/03/31 05:00:57;;;;;;;3.67;1.63;;;2.20;99.90;;;;;;5101418;28;20048;-80
2022/03/31 05:03:23;;;;;;;2.40;1.90;;;2.20;99.90;;;;;;5076027;28;20059;-80
2022/03/31 05:05:49;;;;;;;2.03;1.80;;;2.20;99.90;;;;;;5105733;28;20052;-79
2022/03/31 05:08:14;;;;;;;4.97;2.42;;;2.20;99.90;;;;;;5079074;28;20051;-79
2022/03/31 05:10:41;;;;;;;5.68;1.95;;;2.30;99.90;;;;;;5078741;28;20036;-79
2022/03/31 05:13:10;;;;;;;3.92;2.33;;;2.30;99.90;;;;;;5109110;28;20056;-80
2022/03/31 05:15:36;;;;;;;2.20;1.75;;;2.30;99.90;;;;;;5112330;28;20089;-80
2022/03/31 05:18:02;;;;;;;4.10;2.42;;;2.30;99.90;;;;;;5102515;28;20486;-79
2022/03/31 05:20:27;;;;;;;2.63;2.08;;;2.30;99.90;;;;;;5091774;28;20398;-80
2022/03/31 05:22:53;;;;;;;3.47;2.13;;;2.40;99.90;;;;;;5095597;28;20093;-80
2022/03/31 05:25:18;;;;;;;7.50;3.38;;;2.40;99.90;;;;;;5092989;28;20070;-80
2022/03/31 05:27:46;;;;;;;2.97;2.75;;;2.40;99.90;;;;;;5112089;28;20043;-79
2022/03/31 05:30:13;;;;;;;6.10;2.90;;;2.40;99.90;;;;;;5112158;28;20067;-80
2022/03/31 05:32:39;;;;;;;5.03;3.60;;;2.40;99.90;;;;;;5092937;28;20047;-78
2022/03/31 05:35:07;;;;;;;3.70;3.35;;;2.50;99.90;;;;;;5111047;28;20371;-79
2022/03/31 05:37:33;;;;;;;3.85;3.45;;;2.50;99.90;;;;;;5092520;28;20066;-79
2022/03/31 05:40:03;;;;;;;4.18;3.45;;;2.50;99.90;;;;;;5090466;28;20455;-79
2022/03/31 05:42:28;;;;;;;4.68;4.28;;;2.50;99.90;;;;;;5110031;28;20048;-79
2022/03/31 05:44:54;;;;;;;8.20;7.43;;;2.50;99.90;;;;;;5093222;28;20055;-79
2022/03/31 05:47:20;;;;;;;6.07;5.45;;;2.50;99.90;;;;;;5089783;28;20055;-79
2022/03/31 05:49:45;;;;;;;6.47;5.65;;;2.60;99.90;;;;;;5091411;28;20062;-79
2022/03/31 05:52:11;;;;;;;8.98;8.23;;;2.60;99.90;;;;;;5090383;28;20154;-79
2022/03/31 05:54:36;;;;;;;4.85;4.45;;;4.50;99.90;;;;;;5103619;28;20528;-80
2022/03/31 05:57:02;;;;;;;5.25;4.10;;;2.60;99.90;;;;;;5106011;28;20510;-79
2022/03/31 05:59:28;;;;;;;4.22;3.85;;;2.60;99.90;;;;;;5094645;28;20036;-79
2022/03/31 06:01:53;;;;;;;3.90;3.60;;;2.60;99.90;;;;;;5084815;28;20537;-80
2022/03/31 06:04:21;;;;;;;3.78;3.47;;;2.60;99.90;;;;;;5101233;28;20044;-79
2022/03/31 06:06:50;;;;;;;3.70;3.40;;;2.60;99.90;;;;;;5117521;28;20093;-79
2022/03/31 06:09:16;;;;;;;2.97;2.78;;;2.60;99.90;;;;;;5116705;28;20036;-79
2022/03/31 06:11:42;;;;;;;3.55;3.25;;;2.60;99.90;;;;;;5101490;28;20054;-79
2022/03/31 06:14:09;;;;;;;3.60;3.30;;;2.60;99.90;;;;;;5114927;28;20035;-78
2022/03/31 06:16:35;;;;;;;3.75;3.45;;;2.80;99.90;;;;;;5082366;28;20135;-79
2022/03/31 06:19:01;;;;;;;3.42;3.15;;;2.60;99.90;;;;;;5094211;28;20101;-79
2022/03/31 06:21:26;;;;;;;3.95;3.65;;;2.60;99.90;;;;;;5099740;28;20127;-79
2022/03/31 06:23:52;;;;;;;3.58;3.28;;;2.60;99.90;;;;;;5075707;28;20211;-79
2022/03/31 06:26:18;;;;;;;3.90;3.50;;;2.60;99.90;;;;;;5094551;28;20036;-78
2022/03/31 06:28:43;;;;;;;4.03;3.72;;;2.60;99.90;;;;;;5086186;28;20051;-79
2022/03/31 06:31:09;;;;;;;3.78;3.47;;;2.60;99.90;;;;;;5094107;28;20059;-79
2022/03/31 06:33:37;;;;;;;4.10;3.80;;;2.60;99.90;;;;;;5076626;28;20177;-79
2022/03/31 06:36:03;;;;;;;3.58;3.28;;;2.60;99.90;;;;;;5103154;28;20047;-79
2022/03/31 06:38:28;;;;;;;4.03;3.72;;;2.60;99.90;;;;;;5107813;28;20106;-79
2022/03/31 06:41:06;;;;;;;4.15;3.85;;;2.60;99.90;;;;;;5087436;28;20051;-79
2022/03/31 06:43:35;;;;;;;4.68;4.28;;;2.70;99.90;;;;;;5108719;28;20047;-79
2022/03/31 06:46:00;;;;;;;4.35;4.05;;;2.60;99.90;;;;;;5079528;28;20075;-79
2022/03/31 06:48:26;;;;;;;4.68;4.28;;;2.60;99.90;;;;;;5099570;28;20510;-79
2022/03/31 06:50:52;;;;;;;6.03;5.22;;;2.60;99.90;;;;;;5113868;27;20489;-79
2022/03/31 06:53:18;;;;;;;5.13;4.68;;;2.70;99.90;;;;;;5116104;27;20051;-80
2022/03/31 06:55:45;;;;;;;5.57;5.07;;;2.70;99.90;;;;;;5121686;27;20478;-79
2022/03/31 06:58:10;;;;;;;5.05;4.60;;;2.70;99.90;;;;;;5096222;28;20421;-79
2022/03/31 07:00:36;;;;;;;4.53;4.13;;;3.00;99.90;;;;;;5111813;27;20039;-79
2022/03/31 07:03:03;;;;;;;5.18;4.00;;;2.70;99.90;;;;;;5086706;28;20039;-79
2022/03/31 07:05:29;;;;;;;4.68;4.28;;;2.70;99.90;;;;;;5112702;27;20046;-79
2022/03/31 07:07:54;;;;;;;5.13;4.68;;;2.70;99.90;;;;;;5115670;27;20435;-78
2022/03/31 07:10:21;;;;;;;4.90;4.50;;;2.70;99.90;;;;;;5115591;27;20066;-80
2022/03/31 07:12:47;;;;;;;6.28;5.72;;;2.70;99.90;;;;;;5116003;27;20047;-79
2022/03/31 07:15:13;;;;;;;5.13;4.68;;;2.70;99.90;;;;;;5115861;27;20046;-79
2022/03/31 07:17:38;;;;;;;5.00;4.50;;;2.70;99.90;;;;;;5099877;28;20801;-80
2022/03/31 07:20:04;;;;;;;5.13;4.72;;;2.70;99.90;;;;;;5113857;28;20773;-80
2022/03/31 07:22:32;;;;;;;5.85;5.35;;;2.70;99.90;;;;;;5095260;28;20084;-80
2022/03/31 07:24:58;;;;;;;5.80;5.10;;;2.70;99.90;;;;;;5086695;28;20497;-79
2022/03/31 07:27:23;;;;;;;7.55;6.85;;;2.70;99.90;;;;;;5095001;28;20177;-76
2022/03/31 07:29:49;;;;;;;6.63;5.93;;;2.70;99.90;;;;;;5111526;28;20440;-72
2022/03/31 07:32:15;;;;;;;6.05;5.55;;;2.60;99.90;;;;;;5106597;28;20044;-77
2022/03/31 07:34:40;;;;;;;6.03;5.50;;;2.70;99.90;;;;;;5075008;28;20050;-78
2022/03/31 07:37:06;;;;;;;6.78;6.22;;;2.70;99.90;;;;;;5074561;28;20842;-77
2022/03/31 07:39:34;;;;;;;5.78;5.28;;;2.70;99.90;;;;;;5099022;27;20046;-76
2022/03/31 07:41:59;;;;;;;6.22;5.63;;;2.60;99.90;;;;;;5113009;28;20058;-76
2022/03/31 07:44:25;;;;;;;6.00;5.50;;;2.60;99.90;;;;;;5113285;28;20039;-78
2022/03/31 07:46:51;;;;;;;5.55;5.05;;;2.70;99.90;;;;;;5093912;28;20048;-76
2022/03/31 07:49:18;;;;;;;6.43;5.88;;;2.60;99.90;;;;;;5100646;27;20055;-76
2022/03/31 07:51:43;;;;;;;7.18;5.47;;;2.70;99.90;;;;;;5105001;28;20055;-76
2022/03/31 07:54:09;;;;;;;6.43;5.82;;;2.60;99.90;;;;;;5094325;28;20394;-76
2022/03/31 07:56:35;;;;;;;5.32;4.63;;;2.70;99.90;;;;;;5112589;27;20038;-76
2022/03/31 07:59:01;;;;;;;5.65;5.15;;;2.70;99.90;;;;;;5132487;27;20432;-76
2022/03/31 08:01:27;;;;;;;5.93;5.40;;;2.70;99.90;;;;;;5095061;28;20159;-76
2022/03/31 08:03:53;;;;;;;6.15;5.43;;;2.70;99.90;;;;;;5108956;27;20478;-76
2022/03/31 08:06:19;;;;;;;6.18;5.60;;;2.70;99.90;;;;;;5107350;27;20050;-79
2022/03/31 08:08:45;;;;;;;7.00;5.75;;;2.80;99.90;;;;;;5094503;28;20077;-77
2022/03/31 08:11:10;;;;;;;6.57;5.95;;;2.80;99.90;;;;;;5114212;27;20140;-78
2022/03/31 08:13:36;;;;;;;7.05;6.35;;;2.70;99.90;;;;;;5114040;27;20425;-77
2022/03/31 08:16:02;;;;;;;7.82;6.40;;;2.70;99.90;;;;;;5105500;28;20073;-77
2022/03/31 08:18:33;;;;;;;8.20;7.40;;;2.60;99.90;;;;;;5092753;27;20043;-77
2022/03/31 08:20:59;;;;;;;7.10;6.40;;;2.70;99.90;;;;;;5109159;27;20047;-77
2022/03/31 08:23:26;;;;;;;9.55;7.80;;;2.70;99.90;;;;;;5115775;27;20050;-77
2022/03/31 08:25:52;;;;;;;6.47;5.78;;;2.70;99.90;;;;;;5133325;27;20047;-78
2022/03/31 08:28:17;;;;;;;7.03;6.35;;;2.80;99.90;;;;;;5132320;27;20035;-77
2022/03/31 08:30:43;;;;;;;6.10;5.50;;;2.80;99.90;;;;;;5085315;28;20043;-76
2022/03/31 08:33:09;;;;;;;5.05;4.53;;;2.70;99.90;;;;;;5080618;28;20040;-76
2022/03/31 08:35:35;;;;;;;5.72;5.22;;;2.70;99.90;;;;;;5119360;27;20046;-76
2022/03/31 08:38:01;;;;;;;6.03;5.43;;;2.70;99.90;;;;;;5073560;28;20139;-76
2022/03/31 08:40:26;;;;;;;5.20;4.68;;;2.70;99.90;;;;;;5116818;27;20091;-75
2022/03/31 08:42:53;;;;;;;6.03;5.43;;;2.80;99.90;;;;;;5103628;28;20046;-75
2022/03/31 08:45:25;;;;;;;5.43;4.90;;;2.80;99.90;;;;;;5114876;27;20043;-75
2022/03/31 08:47:53;;;;;;;6.10;5.50;;;4.50;99.90;;;;;;5094508;28;20479;-78
2022/03/31 08:50:21;;;;;;;6.70;6.05;;;2.70;99.90;;;;;;5113432;28;20124;-74
2022/03/31 08:52:47;;;;;;;6.90;6.28;;;2.70;99.90;;;;;;5100124;28;20040;-74
2022/03/31 08:55:12;;;;;;;7.18;6.03;;;2.70;99.90;;;;;;5079567;28;20072;-76
2022/03/31 08:57:49;;;;;;;6.43;5.68;;;2.60;99.90;;;;;;5104450;28;20035;-75
2022/03/31 09:00:17;;;;;;;7.38;5.90;;;2.60;99.90;;;;;;5089605;28;20087;-73
2022/03/31 09:03:01;;;;;;;6.97;6.05;;;2.60;99.90;;;;;;5099825;28;20486;-74
2022/03/31 09:05:34;;;;;;;6.55;5.78;;;2.60;99.90;;;;;;5080832;28;20055;-74
2022/03/31 09:08:05;;;;;;;6.22;5.63;;;2.50;99.90;;;;;;5072690;28;20094;-76
2022/03/31 09:10:34;;;;;;;5.68;5.07;;;2.50;99.90;;;;;;5090638;28;20071;-75
2022/03/31 09:13:03;;;;;;;5.72;5.20;;;2.50;99.90;;;;;;5093017;28;20483;-74
2022/03/31 09:15:29;;;;;;;7.43;4.95;;;2.40;99.90;;;;;;5102584;28;20501;-74
2022/03/31 09:17:58;;;;;;;5.47;4.97;;;2.40;99.90;;;;;;5077284;28;20048;-75
2022/03/31 09:20:35;;;;;;;5.63;5.07;;;2.30;99.90;;;;;;5091744;28;20040;-74
2022/03/31 09:23:01;;;;;;;5.90;4.55;;;2.30;99.90;;;;;;5081339;28;20425;-75
2022/03/31 09:25:28;;;;;;;4.78;4.18;;;2.30;99.90;;;;;;5076018;28;20046;-75
2022/03/31 09:27:55;;;;;;;5.28;4.78;;;2.20;99.90;;;;;;5084652;28;20437;-75
2022/03/31 09:30:24;;;;;;;4.30;3.90;;;2.20;99.90;;;;;;5079034;28;20048;-76
2022/03/31 09:32:51;;;;;;;5.25;4.85;;;2.10;99.90;;;;;;5089904;28;20082;-76
2022/03/31 09:35:24;;;;;;;4.55;4.15;;;2.10;99.90;;;;;;5104062;28;20386;-76
2022/03/31 09:37:55;;;;;;;4.63;3.30;;;2.00;99.90;;;;;;5094040;28;20534;-76
2022/03/31 09:40:21;;;;;;;4.63;3.88;;;2.00;99.90;;;;;;5082752;28;20494;-76
2022/03/31 09:43:00;;;;;;;5.03;4.18;;;2.00;99.90;;;;;;5094170;28;20036;-74
2022/03/31 09:45:39;;;;;;;4.15;3.75;;;2.30;99.90;;;;;;5075815;28;20036;-75
2022/03/31 09:48:08;;;;;;;3.83;3.50;;;2.00;99.90;;;;;;5099559;27;20200;-74
2022/03/31 09:50:36;;;;;;;4.65;3.72;;;1.90;99.90;;;;;;5076426;28;20446;-76
2022/03/31 09:53:02;;;;;;;4.68;3.75;;;1.80;99.90;;;;;;5085291;28;20078;-74
2022/03/31 09:55:29;;;;;;;4.72;4.30;;;1.70;99.90;;;;;;5087522;28;20182;-76
2022/03/31 09:57:56;;;;;;;4.20;3.80;;;1.60;99.90;;;;;;5111504;28;20051;-77
2022/03/31 10:00:23;;;;;;;6.13;4.22;;;1.60;99.90;;;;;;5112571;28;20492;-75
2022/03/31 10:02:50;;;;;;;5.07;4.57;;;1.50;99.90;;;;;;5090565;28;20083;-76
2022/03/31 10:05:18;;;;;;;5.22;4.72;;;1.40;99.90;;;;;;5083612;28;20055;-75
2022/03/31 10:07:45;;;;;;;4.25;3.85;;;1.40;99.90;;;;;;5075890;28;20474;-76
2022/03/31 10:10:11;;;;;;;4.00;3.60;;;1.30;99.90;;;;;;5074982;28;20059;-76
2022/03/31 10:12:49;;;;;;;6.53;5.28;;;1.30;99.90;;;;;;5092138;28;20052;-76
2022/03/31 10:15:30;;;;;;;4.53;4.05;;;1.30;99.90;;;;;;5075661;28;20059;-76
2022/03/31 10:17:57;;;;;;;4.45;4.05;;;1.20;99.90;;;;;;5093570;28;20048;-76
2022/03/31 10:20:22;;;;;;;3.92;3.50;;;1.30;99.90;;;;;;5092955;28;20080;-76
2022/03/31 10:25:45;;;;;;;4.78;3.85;;;1.20;99.90;;;;;;5075091;28;20521;-76
2022/03/31 10:28:21;;;;;;;5.68;3.83;;;1.20;99.90;;;;;;5092527;28;20052;-75
2022/03/31 10:30:56;;;;;;;5.15;4.55;;;1.20;99.90;;;;;;5094116;28;20417;-77
2022/03/31 10:33:32;;;;;;;5.20;4.70;;;1.10;99.90;;;;;;5075214;28;20406;-76
2022/03/31 10:36:09;;;;;;;5.43;4.38;;;1.10;99.90;;;;;;5076122;28;20043;-77
2022/03/31 10:38:35;;;;;;;4.60;4.13;;;1.10;99.90;;;;;;5075438;28;20087;-77
2022/03/31 10:41:05;;;;;;;6.25;4.10;;;1.10;99.90;;;;;;5100270;27;20083;-73
2022/03/31 10:43:32;;;;;;;5.30;4.60;;;1.10;99.90;;;;;;5090298;28;20039;-74
2022/03/31 10:46:01;;;;;;;6.05;4.63;;;1.10;99.90;;;;;;5106112;27;20487;-74
2022/03/31 10:48:31;;;;;;;4.53;4.13;;;1.10;99.90;;;;;;5085055;28;20047;-73
2022/03/31 10:51:04;;;;;;;4.32;3.92;;;1.10;99.90;;;;;;5081203;28;20065;-74
2022/03/31 10:53:31;;;;;;;5.05;4.57;;;1.10;99.90;;;;;;5087732;28;20044;-74
2022/03/31 10:55:59;;;;;;;6.30;4.78;;;1.10;99.90;;;;;;5099041;27;20032;-74
2022/03/31 10:58:28;;;;;;;5.25;4.65;;;1.20;99.90;;;;;;5081243;28;20440;-73
2022/03/31 11:01:00;;;;;;;4.78;4.35;;;1.10;99.90;;;;;;5081730;28;20039;-73
2022/03/31 11:03:26;;;;;;;4.63;4.22;;;1.10;99.90;;;;;;5100800;28;20044;-74
2022/03/31 11:05:53;;;;;;;4.68;4.20;;;1.10;99.90;;;;;;5078844;28;20062;-73
2022/03/31 11:08:18;;;;;;;5.30;4.57;;;1.10;99.90;;;;;;5113874;28;20176;-73
2022/03/31 11:10:54;;;;;;;5.20;4.70;;;1.10;99.90;;;;;;5094551;28;20137;-73
2022/03/31 11:13:35;;;;;;;5.80;4.65;;;1.10;99.90;;;;;;5113906;28;20079;-73
2022/03/31 11:16:01;;;;;;;4.43;3.97;;;1.40;99.90;;;;;;5097223;28;20097;-73
2022/03/31 11:18:27;;;;;;;5.05;3.88;;;1.00;99.90;;;;;;5093311;28;20042;-72
2022/03/31 11:21:01;;;;;;;5.00;4.43;;;1.20;99.90;;;;;;5075163;28;20048;-75
2022/03/31 11:23:29;;;;;;;4.40;4.00;;;1.10;99.90;;;;;;5073741;28;20479;-73
2022/03/31 11:25:55;;;;;;;4.50;4.05;;;1.10;99.90;;;;;;5094382;28;20032;-73
2022/03/31 11:28:21;;;;;;;4.55;4.15;;;1.20;99.90;;;;;;5085017;28;20040;-73
2022/03/31 11:30:48;;;;;;;4.13;3.72;;;1.10;99.90;;;;;;5093790;28;20043;-73
2022/03/31 11:33:14;;;;;;;5.10;3.42;;;1.10;99.90;;;;;;5075054;28;20129;-72
2022/03/31 11:35:41;;;;;;;4.88;4.35;;;1.30;99.90;;;;;;5081040;28;20054;-73
2022/03/31 11:38:18;;;;;;;5.20;4.35;;;1.30;99.90;;;;;;5087429;28;20044;-74
2022/03/31 11:40:46;;;;;;;4.55;3.88;;;1.20;99.90;;;;;;5073902;28;20059;-75
2022/03/31 11:43:15;;;;;;;5.03;4.57;;;1.10;99.90;;;;;;5092700;28;20138;-74
2022/03/31 11:45:45;;;;;;;3.92;3.63;;;1.10;99.90;;;;;;5091480;28;20383;-73
2022/03/31 11:48:22;;;;;;;3.38;3.08;;;1.10;99.90;;;;;;5092143;28;20048;-73
2022/03/31 11:50:59;;;;;;;4.43;3.88;;;1.00;99.90;;;;;;5072212;28;20479;-75
2022/03/31 11:53:27;;;;;;;7.75;4.30;;;1.00;99.90;;;;;;5073614;28;20058;-79
2022/03/31 11:55:55;;;;;;;4.47;4.07;;;1.00;99.90;;;;;;5091050;28;20515;-76
2022/03/31 11:58:21;;;;;;;4.03;3.65;;;1.10;99.90;;;;;;5091748;28;20132;-76
2022/03/31 12:00:51;;;;;;;4.20;3.80;;;0.90;99.90;;;;;;5103305;28;20040;-76
2022/03/31 12:03:18;;;;;;;4.90;4.40;;;0.90;99.90;;;;;;5092244;28;20054;-76
2022/03/31 12:05:53;;;;;;;5.95;4.15;;;0.90;99.90;;;;;;5091910;28;20050;-76
2022/03/31 12:08:19;;;;;;;4.85;4.30;;;0.80;99.90;;;;;;5074349;28;20036;-75
2022/03/31 12:10:48;;;;;;;6.50;4.50;;;0.90;99.90;;;;;;5103951;28;20493;-76
2022/03/31 12:13:14;;;;;;;6.80;5.43;;;0.90;99.90;;;;;;5091567;28;20056;-77
2022/03/31 12:15:41;;;;;;;5.50;5.00;;;0.90;99.90;;;;;;5073985;28;20044;-77
2022/03/31 12:18:08;;;;;;;5.47;4.97;;;0.80;99.90;;;;;;5092182;28;20126;-75
2022/03/31 12:20:37;;;;;;;6.25;5.18;;;0.80;99.90;;;;;;5073738;28;20510;-75
2022/03/31 12:23:15;;;;;;;5.18;4.68;;;1.00;99.90;;;;;;5102366;28;20074;-74
2022/03/31 12:25:41;;;;;;;4.60;4.20;;;0.70;99.90;;;;;;5092037;28;20121;-74
2022/03/31 12:28:10;;;;;;;5.78;4.60;;;0.70;99.90;;;;;;5090826;28;20463;-74
2022/03/31 12:30:43;;;;;;;6.28;4.82;;;0.70;99.90;;;;;;5073717;28;20052;-74
2022/03/31 12:33:34;;;;;;;5.63;4.97;;;0.80;99.90;;;;;;5081544;28;20048;-74
2022/03/31 12:36:07;;;;;;;7.30;4.85;;;0.70;99.90;;;;;;5073471;28;20051;-73
2022/03/31 12:38:45;;;;;;;5.28;4.68;;;0.70;99.90;;;;;;5073564;28;20078;-73
2022/03/31 12:41:26;;;;;;;5.60;4.60;;;0.70;99.90;;;;;;5111089;28;20436;-73
2022/03/31 12:44:07;;;;;;;7.80;5.70;;;0.70;99.90;;;;;;5093713;28;20071;-74
2022/03/31 12:46:43;;;;;;;8.80;6.75;;;0.70;99.90;;;;;;5111746;28;20124;-74
2022/03/31 12:49:12;;;;;;;5.68;4.95;;;0.70;99.90;;;;;;5085487;28;20071;-74
2022/03/31 12:51:52;;;;;;;5.07;4.57;;;0.70;99.90;;;;;;5073387;28;20479;-74
2022/03/31 12:54:30;;;;;;;6.15;5.63;;;0.70;99.90;;;;;;5100974;28;20565;-74
2022/03/31 12:56:59;;;;;;;14.82;10.90;;;0.70;99.90;;;;;;5092061;28;20055;-74
2022/03/31 12:59:30;;;;;;;5.72;5.15;;;0.90;99.90;;;;;;5091487;28;20040;-74
2022/03/31 13:02:00;;;;;;;7.55;6.28;;;0.70;99.90;;;;;;5091921;28;20047;-75
2022/03/31 13:04:25;;;;;;;6.25;5.68;;;0.70;99.90;;;;;;5116405;28;20388;-75